world map with ONJ marked

ONJ - Airport

This information may not be accurate or current and is not valid for navigation or flight planning. No warranty of fitness for any purpose is made or implied.

flag of Akitaflag of Japan

Donate via PayPal

Additional information is available on the NEW Great Circle Mapper

Location
City:  Odate-Noshiro, Akita, Japan
Near (Alt.):Kita Akita
Name:Odate-Noshiro Airport
ICAO / IATA:RJSR / ONJ

Details
Type:Airport (Aerodrome, Airfield)
Latitude:40°11'31"N (40.191872)
Longitude:140°22'17"E (140.371431)
Datum:WGS 1984
Elevation:292 ft (89 m)
Runways:1
Longest:6562 × 148 ft (2000 × 45 m)

Time
Timezone:UTC+9 (DST+11)
Local Time:

Weather
METAR:RJSR  041000Z 26015KT 3000 -SHSN FEW003 SCT010 BKN020 M03/M05 Q1016

Related Locations
Nearby:
Farthest:SUEX: 11984 mi / 19287 km
Montevideo East [Montevideo East UIR], UY

Find:

   beyond  
but within

Other Information
Maps:
Sources:

  


 


Great Circle Mapper   Great Circle Mapper
Great Circle Mapper FAQ   Great Circle Mapper FAQ
  Karl's Home Page
KLSē   KLSē Home
   GC on Facebook
Airlines of the World   Airlines of the World
Donate via PayPal


Copyright © 2004-2020, Karl L. Swartz. All rights reserved.
All trademarks mentioned herein belong to their respective owners.

Please see credits for attribution and copyright information.

Karl Swartz <karl@kls2.com>
  Powered by FreeBSD
Valid HTML 4.01!
Labeled with ICRA
hCard Microformat
Geo Microformat